Terminal Aerodrome Forecast
Issued by NWS

Home | Current Version | Previous Version | Text Only | Print | Product List | Glossary On
Versions: 1 2 3 4 5 6 7 8 9 10 11 12 13
823
FTUS42 TJSJ 301221 RRA
TAFKPK
TAF
TKPK 301221Z 3012/0112 10009KT P6SM -RA FEW018 SCT035 BKN090
      TEMPO 3012/3014 VRB12G20KT 5SM SHRA BKN018 BKN035
     FM301430 09011KT P6SM VCSH FEW020 SCT050 BKN120
     FM302300 08008KT P6SM SCT018 BKN050=

USA.gov is the U.S. government's official web portal to all federal, state and local government web resources and services.